createdAt,value
2018-07-20T00:00:09.672Z,8.53
2018-07-20T00:02:38.005Z,8.60
2018-07-20T00:05:06.893Z,8.40
2018-07-20T00:07:35.327Z,9.93
2018-07-20T00:10:03.751Z,8.53
2018-07-20T00:12:32.142Z,8.13
2018-07-20T00:15:00.551Z,8.97
2018-07-20T00:17:28.940Z,8.67
2018-07-20T00:19:57.295Z,8.70
2018-07-20T00:22:25.682Z,9.13
2018-07-20T00:24:54.078Z,8.53
2018-07-20T00:27:22.445Z,11.57
2018-07-20T00:35:00.822Z,8.10
2018-07-20T00:37:29.241Z,8.97
2018-07-20T00:39:57.581Z,8.83
2018-07-20T00:42:26.003Z,9.00
2018-07-20T00:44:54.463Z,9.07
2018-07-20T00:47:22.838Z,8.57
2018-07-20T00:49:51.186Z,9.87
2018-07-20T00:52:19.579Z,8.43
2018-07-20T00:54:47.993Z,8.37
2018-07-20T00:57:16.342Z,9.30
2018-07-20T00:59:44.674Z,9.50
2018-07-20T01:02:13.077Z,8.90
2018-07-20T01:04:41.461Z,8.57
2018-07-20T01:07:10.053Z,10.70
2018-07-20T01:09:38.425Z,9.33
2018-07-20T01:12:07.001Z,13.27
2018-07-20T01:14:35.437Z,9.43
2018-07-20T01:17:03.795Z,8.70
2018-07-20T01:19:32.169Z,9.93
2018-07-20T01:22:00.559Z,9.77
2018-07-20T01:24:28.994Z,9.70
2018-07-20T01:26:57.355Z,8.70
2018-07-20T01:29:25.761Z,8.57
2018-07-20T01:31:54.114Z,9.03
2018-07-20T01:34:22.518Z,9.93
2018-07-20T01:36:50.901Z,10.33
2018-07-20T01:39:19.309Z,9.07
2018-07-20T01:41:47.719Z,8.83
2018-07-20T01:44:16.130Z,10.17
2018-07-20T01:46:44.542Z,10.87
2018-07-20T01:49:12.970Z,8.97
2018-07-20T01:51:41.339Z,9.60
2018-07-20T01:54:09.692Z,9.10
2018-07-20T01:56:37.812Z,9.57
2018-07-20T01:59:06.163Z,10.17
2018-07-20T02:01:34.580Z,10.10
2018-07-20T02:04:02.958Z,9.80
2018-07-20T02:06:31.393Z,8.97
2018-07-20T02:08:59.770Z,11.47
2018-07-20T02:11:28.110Z,10.47
2018-07-20T02:13:56.535Z,10.23
2018-07-20T02:16:24.913Z,9.30
2018-07-20T02:18:53.329Z,8.93
2018-07-20T02:21:21.705Z,9.13
2018-07-20T02:23:50.125Z,8.97
2018-07-20T02:26:18.587Z,10.47
2018-07-20T02:28:46.990Z,9.60
2018-07-20T02:31:15.407Z,10.13
2018-07-20T02:33:43.806Z,10.17
2018-07-20T02:36:12.191Z,10.43
2018-07-20T02:38:40.633Z,10.20
2018-07-20T02:41:09.234Z,10.67
2018-07-20T02:43:37.621Z,10.27
2018-07-20T02:46:06.348Z,10.67
2018-07-20T02:48:34.853Z,9.77
2018-07-20T02:51:03.247Z,10.63
2018-07-20T02:53:31.609Z,10.23
2018-07-20T02:55:59.989Z,10.13
2018-07-20T02:58:28.430Z,10.23
2018-07-20T03:00:56.838Z,10.50
2018-07-20T03:03:24.963Z,10.67
2018-07-20T03:05:53.343Z,9.77
2018-07-20T03:08:21.757Z,11.20
2018-07-20T03:10:50.118Z,10.70
2018-07-20T03:13:18.541Z,9.57
2018-07-20T03:15:46.918Z,10.30
2018-07-20T03:18:15.350Z,9.83
2018-07-20T03:20:43.820Z,11.20
2018-07-20T03:23:12.283Z,10.60
2018-07-20T03:25:40.714Z,10.90
2018-07-20T03:28:09.157Z,10.43
2018-07-20T03:30:37.566Z,10.90
2018-07-20T03:33:05.937Z,10.93
2018-07-20T03:35:34.313Z,11.23
2018-07-20T03:38:02.735Z,10.70
2018-07-20T03:40:31.090Z,10.70
2018-07-20T03:42:59.447Z,11.27
2018-07-20T03:45:27.947Z,10.20
2018-07-20T03:47:56.301Z,11.43
2018-07-20T03:50:24.763Z,10.93
2018-07-20T03:52:54.021Z,11.90
2018-07-20T03:55:22.421Z,11.27
2018-07-20T03:57:50.838Z,10.70
2018-07-20T04:00:19.198Z,10.90
2018-07-20T04:02:47.659Z,10.90
2018-07-20T04:05:16.075Z,11.27
2018-07-20T04:07:44.462Z,10.40
2018-07-20T04:10:12.871Z,10.43
2018-07-20T04:12:41.310Z,10.03
2018-07-20T04:15:09.683Z,10.97
2018-07-20T04:17:43.525Z,10.47
2018-07-20T04:20:12.898Z,10.43
2018-07-20T04:22:41.323Z,9.57
2018-07-20T04:25:09.713Z,10.20
2018-07-20T04:27:38.054Z,10.50
2018-07-20T04:30:08.833Z,10.37
2018-07-20T04:32:37.457Z,10.43
2018-07-20T04:35:06.075Z,11.00
2018-07-20T04:37:34.522Z,9.73
2018-07-20T04:40:02.918Z,10.30
2018-07-20T04:42:31.298Z,9.70
2018-07-20T04:44:59.710Z,10.60
2018-07-20T04:47:28.150Z,10.00
2018-07-20T04:49:56.606Z,11.80
2018-07-20T04:52:25.013Z,9.77
2018-07-20T04:54:53.465Z,10.53
2018-07-20T04:57:21.833Z,9.37
2018-07-20T04:59:50.185Z,10.03
2018-07-20T05:02:18.630Z,9.87
2018-07-20T05:04:47.039Z,10.73
2018-07-20T05:07:15.253Z,10.73
2018-07-20T05:09:43.612Z,12.27
2018-07-20T05:12:12.022Z,11.00
2018-07-20T05:14:40.393Z,11.07
2018-07-20T05:17:08.778Z,10.40
2018-07-20T05:19:37.297Z,10.83
2018-07-20T05:22:05.880Z,10.13
2018-07-20T05:24:34.263Z,12.90
2018-07-20T05:27:02.644Z,10.73
2018-07-20T05:29:31.101Z,9.90
2018-07-20T05:31:59.479Z,10.63
2018-07-20T05:34:27.928Z,10.07
2018-07-20T05:36:56.296Z,10.97
2018-07-20T05:39:24.698Z,10.07
2018-07-20T05:41:53.066Z,10.03
2018-07-20T05:44:21.679Z,13.57
2018-07-20T05:46:50.099Z,11.03
2018-07-20T05:49:18.438Z,11.53
2018-07-20T05:51:46.886Z,10.10
2018-07-20T05:54:15.757Z,9.57
2018-07-20T05:56:44.149Z,9.77
2018-07-20T05:59:12.481Z,9.10
2018-07-20T06:01:40.870Z,9.73
2018-07-20T06:04:09.301Z,10.57
2018-07-20T06:06:37.702Z,13.20
2018-07-20T06:09:09.091Z,11.10
2018-07-20T06:11:37.521Z,9.33
2018-07-20T06:14:06.294Z,10.87
2018-07-20T06:16:34.638Z,9.73
2018-07-20T06:19:03.225Z,10.10
2018-07-20T06:21:31.603Z,10.70
2018-07-20T06:24:00.054Z,8.73
2018-07-20T06:26:28.425Z,9.07
2018-07-20T06:28:56.778Z,8.70
2018-07-20T06:31:25.167Z,9.17
2018-07-20T06:33:53.523Z,8.50
2018-07-20T06:36:21.919Z,7.77
2018-07-20T06:38:50.281Z,8.97
2018-07-20T06:41:18.791Z,8.40
2018-07-20T06:43:47.234Z,9.40
2018-07-20T06:46:15.606Z,8.47
2018-07-20T06:48:43.997Z,10.40
2018-07-20T06:51:12.342Z,8.30
2018-07-20T06:53:40.805Z,8.30
2018-07-20T06:56:09.224Z,9.27
2018-07-20T06:58:38.732Z,13.27
2018-07-20T07:01:07.746Z,9.73
2018-07-20T07:03:36.141Z,10.10
2018-07-20T07:06:04.519Z,7.70
2018-07-20T07:08:33.036Z,8.40
2018-07-20T07:11:01.438Z,6.90
2018-07-20T07:13:29.797Z,7.33
2018-07-20T07:15:58.202Z,6.97
2018-07-20T07:18:26.577Z,6.73
2018-07-20T07:20:54.977Z,7.10
2018-07-20T07:23:23.353Z,7.87
2018-07-20T07:25:51.794Z,9.07
2018-07-20T07:28:21.194Z,13.90
2018-07-20T07:30:49.581Z,5.70
2018-07-20T07:33:17.935Z,6.20
2018-07-20T07:35:46.342Z,5.13
2018-07-20T07:38:14.716Z,4.67
2018-07-20T07:40:43.167Z,4.72
2018-07-20T07:43:11.646Z,5.27
2018-07-20T07:45:40.024Z,8.38
2018-07-20T07:48:08.421Z,4.80
2018-07-20T07:50:36.799Z,4.60
2018-07-20T07:53:05.178Z,4.93
2018-07-20T07:55:33.542Z,5.12
2018-07-20T07:58:02.982Z,4.60
2018-07-20T08:00:31.485Z,7.90
2018-07-20T08:02:59.943Z,4.67
2018-07-20T08:05:28.302Z,4.22
2018-07-20T08:07:56.682Z,5.55
2018-07-20T08:10:25.091Z,7.53
2018-07-20T08:12:53.435Z,3.60
2018-07-20T08:15:21.811Z,4.43
2018-07-20T08:17:50.198Z,4.17
2018-07-20T08:20:18.541Z,4.83
2018-07-20T08:22:46.942Z,4.40
2018-07-20T08:25:15.322Z,4.35
2018-07-20T08:27:43.754Z,3.90
2018-07-20T08:30:12.115Z,6.05
2018-07-20T08:32:40.456Z,4.60
2018-07-20T08:35:08.837Z,3.90
2018-07-20T08:37:37.181Z,6.08
2018-07-20T08:40:05.547Z,4.33
2018-07-20T08:42:33.949Z,5.22
2018-07-20T08:45:02.334Z,5.45
2018-07-20T08:47:30.669Z,5.35
2018-07-20T08:49:59.138Z,6.37
2018-07-20T08:52:27.628Z,5.35
2018-07-20T08:54:56.019Z,8.73
2018-07-20T08:57:24.474Z,5.55
2018-07-20T08:59:52.839Z,7.30
2018-07-20T09:02:21.269Z,5.05
2018-07-20T09:04:49.685Z,4.33
2018-07-20T09:07:18.046Z,5.62
2018-07-20T09:09:46.653Z,4.42
2018-07-20T09:12:15.026Z,8.23
2018-07-20T09:14:43.438Z,7.10
2018-07-20T09:17:12.031Z,6.15
2018-07-20T09:19:40.427Z,4.50
2018-07-20T09:22:08.882Z,4.40
2018-07-20T09:24:37.360Z,7.37
2018-07-20T09:27:05.736Z,3.87
2018-07-20T09:29:34.171Z,3.95
2018-07-20T09:32:02.554Z,5.37
2018-07-20T09:34:30.930Z,7.28
2018-07-20T09:36:59.331Z,6.28
2018-07-20T09:39:27.706Z,7.72
2018-07-20T09:41:55.821Z,4.28
2018-07-20T09:44:24.200Z,3.60
2018-07-20T09:46:52.568Z,4.78
2018-07-20T09:49:20.991Z,4.08
2018-07-20T09:51:49.386Z,3.87
2018-07-20T09:54:17.776Z,3.90
2018-07-20T09:56:46.166Z,5.35
2018-07-20T09:59:14.509Z,5.28
2018-07-20T10:01:43.499Z,4.10
2018-07-20T10:04:11.914Z,4.72
2018-07-20T10:06:40.285Z,4.67
2018-07-20T10:09:10.482Z,4.78
2018-07-20T10:11:38.855Z,3.95
2018-07-20T10:14:07.265Z,8.08
2018-07-20T10:16:35.893Z,6.80
2018-07-20T10:19:04.521Z,4.15
2018-07-20T10:21:32.874Z,4.22
2018-07-20T10:24:01.259Z,4.20
2018-07-20T10:26:29.629Z,5.97
2018-07-20T10:28:58.223Z,4.67
2018-07-20T10:31:26.591Z,6.10
2018-07-20T10:33:54.958Z,6.12
2018-07-20T10:36:23.402Z,6.03
2018-07-20T10:38:51.781Z,3.90
2018-07-20T10:41:20.141Z,6.42
2018-07-20T10:43:48.548Z,4.70
2018-07-20T10:46:16.896Z,5.30
2018-07-20T10:48:45.236Z,4.55
2018-07-20T10:51:13.613Z,7.12
2018-07-20T10:53:41.988Z,4.22
2018-07-20T10:56:10.443Z,4.55
2018-07-20T10:58:38.810Z,5.35
2018-07-20T11:01:07.321Z,4.10
2018-07-20T11:03:35.765Z,4.17
2018-07-20T11:06:04.145Z,5.42
2018-07-20T11:08:32.504Z,4.45
2018-07-20T11:11:00.902Z,3.83
2018-07-20T11:13:29.256Z,6.78
2018-07-20T11:15:57.653Z,4.83
2018-07-20T11:18:25.737Z,6.22
2018-07-20T11:20:54.089Z,6.53
2018-07-20T11:23:22.543Z,4.05
2018-07-20T11:25:50.890Z,4.30
2018-07-20T11:28:19.397Z,4.58
2018-07-20T11:30:47.782Z,4.78
2018-07-20T11:33:16.131Z,4.60
2018-07-20T11:35:44.636Z,6.95
2018-07-20T11:38:13.029Z,4.33
2018-07-20T11:40:41.388Z,4.22
2018-07-20T11:43:09.762Z,5.22
2018-07-20T11:45:38.159Z,5.87
2018-07-20T11:48:06.502Z,7.05
2018-07-20T11:50:34.704Z,4.57
2018-07-20T11:53:03.167Z,6.53
2018-07-20T11:55:31.534Z,5.13
2018-07-20T11:57:59.621Z,5.05
2018-07-20T12:00:28.028Z,4.62
2018-07-20T12:02:56.611Z,6.10
2018-07-20T12:05:24.980Z,5.40
2018-07-20T12:07:53.779Z,7.60
2018-07-20T12:10:22.258Z,7.55
2018-07-20T12:12:50.684Z,4.25
2018-07-20T12:15:19.078Z,4.97
2018-07-20T12:17:47.431Z,8.35
2018-07-20T12:20:15.838Z,3.70
2018-07-20T12:22:44.194Z,5.05
2018-07-20T12:25:12.534Z,8.33
2018-07-20T12:27:40.902Z,4.45
2018-07-20T12:30:09.293Z,4.75
2018-07-20T12:32:37.734Z,4.17
2018-07-20T12:35:06.266Z,4.65
2018-07-20T12:37:34.661Z,4.10
2018-07-20T12:40:03.037Z,5.50
2018-07-20T12:42:31.470Z,4.28
2018-07-20T12:44:59.861Z,4.12
2018-07-20T12:47:28.223Z,4.50
2018-07-20T12:49:56.651Z,5.65
2018-07-20T12:52:25.017Z,4.33
2018-07-20T12:54:53.456Z,4.72
2018-07-20T12:57:21.889Z,5.35
2018-07-20T12:59:50.299Z,4.60
2018-07-20T13:02:18.662Z,4.20
2018-07-20T13:04:47.059Z,4.28
2018-07-20T13:07:15.441Z,3.80
2018-07-20T13:09:43.921Z,3.52
2018-07-20T13:12:12.490Z,4.72
2018-07-20T13:14:40.871Z,4.55
2018-07-20T13:17:09.268Z,5.00
2018-07-20T13:19:37.690Z,6.60
2018-07-20T13:22:06.714Z,4.75
2018-07-20T13:24:36.019Z,7.25
2018-07-20T13:27:04.934Z,5.75
2018-07-20T13:29:33.297Z,5.22
2018-07-20T13:32:01.694Z,5.15
2018-07-20T13:34:30.090Z,5.78
2018-07-20T13:36:58.466Z,3.92
2018-07-20T13:39:26.881Z,5.47
2018-07-20T13:41:55.341Z,6.80
2018-07-20T13:44:23.817Z,6.80
2018-07-20T13:46:52.352Z,5.42
2018-07-20T13:49:20.750Z,4.95
2018-07-20T13:51:49.287Z,4.00
2018-07-20T13:54:17.716Z,4.87
2018-07-20T13:56:46.142Z,5.12
2018-07-20T13:59:14.613Z,7.10
2018-07-20T14:01:43.200Z,5.60
2018-07-20T14:04:11.610Z,4.20
2018-07-20T14:06:40.197Z,4.22
2018-07-20T14:09:09.907Z,6.67
2018-07-20T14:11:38.797Z,7.55
2018-07-20T14:14:07.735Z,5.67
2018-07-20T14:16:36.254Z,4.08
2018-07-20T14:19:04.649Z,7.90
2018-07-20T14:21:33.001Z,4.35
2018-07-20T14:24:01.425Z,4.95
2018-07-20T14:26:29.844Z,5.12
2018-07-20T14:28:58.215Z,3.80
2018-07-20T14:31:26.688Z,5.45
2018-07-20T14:33:55.032Z,5.05
2018-07-20T14:36:23.434Z,4.08
2018-07-20T14:38:51.857Z,4.58
2018-07-20T14:41:20.242Z,4.12
2018-07-20T14:43:48.737Z,6.20
2018-07-20T14:46:17.128Z,5.25
2018-07-20T14:48:45.569Z,6.35
2018-07-20T14:51:13.940Z,4.62
2018-07-20T14:53:42.025Z,4.97
2018-07-20T14:56:10.430Z,5.85
2018-07-20T14:58:38.826Z,6.58
2018-07-20T15:01:07.272Z,4.33
2018-07-20T15:03:35.663Z,4.08
2018-07-20T15:06:04.091Z,6.40
2018-07-20T15:08:32.533Z,7.28
2018-07-20T15:11:00.899Z,4.90
2018-07-20T15:13:29.373Z,4.70
2018-07-20T15:15:57.709Z,4.67
2018-07-20T15:18:26.125Z,5.45
2018-07-20T15:20:54.628Z,5.83
2018-07-20T15:23:23.011Z,4.28
2018-07-20T15:25:51.382Z,5.83
2018-07-20T15:28:19.775Z,4.83
2018-07-20T15:30:48.186Z,5.80
2018-07-20T15:33:16.684Z,5.72
2018-07-20T15:35:45.074Z,5.35
2018-07-20T15:38:13.506Z,5.17
2018-07-20T15:40:41.865Z,4.90
2018-07-20T15:43:10.284Z,3.92
2018-07-20T15:48:07.249Z,4.95
2018-07-20T15:50:35.639Z,4.15
2018-07-20T15:55:32.582Z,5.10
2018-07-20T15:58:00.950Z,4.33
2018-07-20T16:00:29.365Z,8.03
2018-07-20T16:02:57.776Z,7.90
2018-07-20T16:05:26.197Z,3.75
2018-07-20T16:07:54.591Z,6.42
2018-07-20T16:10:22.941Z,4.62
2018-07-20T16:12:51.375Z,5.03
2018-07-20T16:15:19.775Z,13.13
2018-07-20T16:17:48.143Z,6.15
2018-07-20T16:20:16.548Z,4.28
2018-07-20T16:22:44.952Z,5.87
2018-07-20T16:25:13.326Z,6.45
2018-07-20T16:27:41.898Z,5.92
2018-07-20T16:30:10.302Z,7.33
2018-07-20T16:32:38.741Z,7.15
2018-07-20T16:35:07.431Z,5.92
2018-07-20T16:37:35.849Z,10.38
2018-07-20T16:40:04.439Z,4.58
2018-07-20T16:42:32.974Z,5.87
2018-07-20T16:45:01.370Z,5.60
2018-07-20T16:47:29.801Z,5.33
2018-07-20T16:49:58.193Z,4.60
2018-07-20T16:52:26.633Z,4.72
2018-07-20T16:54:55.051Z,4.10
2018-07-20T16:57:23.557Z,5.58
2018-07-20T16:59:52.024Z,8.20
2018-07-20T17:02:20.395Z,4.00
2018-07-20T17:04:48.763Z,6.28
2018-07-20T17:07:17.141Z,4.78
2018-07-20T17:09:45.520Z,7.80
2018-07-20T17:12:13.929Z,6.95
2018-07-20T17:14:42.430Z,4.67
2018-07-20T17:17:10.818Z,6.28
2018-07-20T17:19:39.240Z,6.40
2018-07-20T17:22:07.598Z,7.25
2018-07-20T17:24:36.104Z,5.35
2018-07-20T17:27:05.129Z,5.45
2018-07-20T17:29:33.523Z,6.05
2018-07-20T17:32:01.903Z,6.22
2018-07-20T17:34:30.341Z,8.68
2018-07-20T17:36:58.893Z,7.53
2018-07-20T17:39:27.262Z,5.50
2018-07-20T17:41:55.677Z,6.03
2018-07-20T17:44:24.050Z,7.37
2018-07-20T17:46:52.490Z,6.40
2018-07-20T17:49:20.908Z,5.22
2018-07-20T17:51:49.361Z,5.47
2018-07-20T17:54:17.733Z,7.28
2018-07-20T17:56:46.133Z,5.25
2018-07-20T17:59:14.566Z,7.83
2018-07-20T18:01:42.958Z,7.25
2018-07-20T18:04:11.403Z,5.58
2018-07-20T18:06:39.806Z,7.50
2018-07-20T18:09:09.621Z,6.62
2018-07-20T18:11:38.030Z,6.97
2018-07-20T18:14:06.570Z,5.45
2018-07-20T18:16:34.936Z,10.30
2018-07-20T18:19:03.565Z,7.50
2018-07-20T18:21:32.007Z,5.75
2018-07-20T18:24:00.392Z,5.65
2018-07-20T18:26:28.785Z,6.63
2018-07-20T18:28:57.182Z,8.38
2018-07-20T18:31:25.594Z,7.20
2018-07-20T18:33:54.055Z,9.28
2018-07-20T18:36:22.403Z,7.45
2018-07-20T18:38:50.916Z,5.60
2018-07-20T18:41:19.329Z,6.03
2018-07-20T18:43:47.721Z,5.72
2018-07-20T18:46:16.175Z,7.90
2018-07-20T18:48:44.734Z,7.53
2018-07-20T18:51:13.131Z,6.10
2018-07-20T18:53:41.490Z,5.80
2018-07-20T18:56:09.988Z,5.17
2018-07-20T18:58:38.449Z,7.37
2018-07-20T19:01:06.986Z,6.87
2018-07-20T19:03:35.427Z,5.65
2018-07-20T19:06:03.832Z,7.90
2018-07-20T19:08:32.233Z,10.95
2018-07-20T19:11:00.685Z,6.60
2018-07-20T19:13:29.080Z,6.47
2018-07-20T19:15:57.445Z,6.30
2018-07-20T19:18:25.878Z,6.53
2018-07-20T19:20:54.376Z,5.97
2018-07-20T19:23:22.720Z,8.73
2018-07-20T19:25:51.089Z,6.47
2018-07-20T19:28:19.486Z,9.00
2018-07-20T19:30:47.919Z,7.15
2018-07-20T19:33:16.313Z,6.20
2018-07-20T19:35:44.672Z,6.08
2018-07-20T19:38:13.110Z,7.22
2018-07-20T19:40:41.482Z,6.67
2018-07-20T19:43:09.861Z,9.43
2018-07-20T19:45:38.257Z,7.85
2018-07-20T19:48:06.672Z,6.00
2018-07-20T19:50:35.042Z,6.90
2018-07-20T19:53:03.422Z,7.40
2018-07-20T19:55:31.826Z,6.70
2018-07-20T19:58:00.238Z,6.55
2018-07-20T20:00:28.609Z,6.12
2018-07-20T20:02:57.068Z,7.83
2018-07-20T20:05:25.436Z,8.45
2018-07-20T20:07:53.785Z,7.20
2018-07-20T20:10:22.154Z,6.60
2018-07-20T20:12:50.649Z,7.45
2018-07-20T20:15:19.068Z,8.05
2018-07-20T20:17:47.570Z,7.45
2018-07-20T20:20:15.960Z,5.97
2018-07-20T20:22:45.141Z,7.03
2018-07-20T20:25:13.747Z,6.47
2018-07-20T20:27:42.451Z,6.20
2018-07-20T20:30:10.858Z,8.98
2018-07-20T20:32:39.293Z,7.47
2018-07-20T20:35:07.671Z,8.23
2018-07-20T20:37:36.106Z,6.80
2018-07-20T20:40:05.134Z,9.60
2018-07-20T20:42:33.548Z,8.68
2018-07-20T20:45:01.978Z,8.25
2018-07-20T20:47:30.122Z,6.65
2018-07-20T20:49:58.536Z,7.83
2018-07-20T20:52:26.889Z,7.30
2018-07-20T20:54:55.269Z,7.70
2018-07-20T20:57:23.677Z,13.33
2018-07-20T20:59:52.070Z,7.30
2018-07-20T21:02:20.418Z,7.77
2018-07-20T21:04:48.824Z,6.55
2018-07-20T21:07:17.211Z,11.60
2018-07-20T21:09:45.594Z,8.90
2018-07-20T21:12:14.015Z,7.00
2018-07-20T21:14:42.356Z,7.50
2018-07-20T21:17:11.256Z,7.17
2018-07-20T21:19:39.704Z,8.60
2018-07-20T21:22:08.116Z,8.50
2018-07-20T21:24:36.633Z,9.67
2018-07-20T21:27:05.093Z,8.10
2018-07-20T21:29:33.481Z,7.45
2018-07-20T21:32:01.864Z,8.47
2018-07-20T21:34:30.243Z,10.53
2018-07-20T21:36:58.597Z,9.47
2018-07-20T21:39:26.977Z,8.50
2018-07-20T21:41:55.346Z,8.73
2018-07-20T21:44:23.776Z,7.28
2018-07-20T21:46:52.133Z,6.60
2018-07-20T21:49:20.589Z,7.83
2018-07-20T21:51:48.997Z,8.10
2018-07-20T21:54:17.474Z,8.08
2018-07-20T21:56:45.905Z,11.38
2018-07-20T21:59:14.333Z,7.85
2018-07-20T22:01:42.721Z,8.93
2018-07-20T22:04:11.186Z,7.83
2018-07-20T22:06:39.597Z,8.80
2018-07-20T22:09:09.506Z,11.35
2018-07-20T22:11:38.075Z,8.43
2018-07-20T22:14:06.641Z,8.13
2018-07-20T22:16:35.117Z,8.25
2018-07-20T22:19:03.626Z,9.77
2018-07-20T22:21:31.971Z,9.67
2018-07-20T22:24:00.470Z,7.70
2018-07-20T22:26:28.890Z,11.22
2018-07-20T22:28:57.294Z,11.10
2018-07-20T22:31:25.643Z,7.92
2018-07-20T22:33:54.022Z,8.27
2018-07-20T22:36:22.380Z,10.60
2018-07-20T22:38:50.862Z,11.37
2018-07-20T22:41:19.245Z,9.80
2018-07-20T22:43:47.750Z,11.10
2018-07-20T22:46:16.204Z,10.27
2018-07-20T22:48:44.585Z,9.93
2018-07-20T22:51:13.218Z,10.57
2018-07-20T22:53:41.578Z,10.00
2018-07-20T22:56:10.066Z,9.00
2018-07-20T22:58:38.485Z,8.47
2018-07-20T23:01:07.197Z,13.03
2018-07-20T23:03:35.680Z,12.53
2018-07-20T23:06:04.037Z,9.10
2018-07-20T23:08:32.443Z,13.83
2018-07-20T23:11:00.837Z,9.60
2018-07-20T23:13:29.281Z,9.80
2018-07-20T23:15:57.633Z,9.93
2018-07-20T23:18:25.870Z,13.23
2018-07-20T23:20:54.319Z,9.73
2018-07-20T23:23:22.712Z,11.33
2018-07-20T23:25:51.104Z,10.67
2018-07-20T23:28:19.453Z,11.70
2018-07-20T23:30:47.852Z,11.10
2018-07-20T23:33:16.232Z,8.97
2018-07-20T23:35:44.590Z,10.23
2018-07-20T23:38:12.962Z,8.47
2018-07-20T23:40:41.369Z,16.20
2018-07-20T23:43:09.807Z,14.70
2018-07-20T23:45:37.929Z,10.30
2018-07-20T23:48:06.378Z,13.33
2018-07-20T23:50:34.805Z,8.50
2018-07-20T23:53:03.233Z,9.13
2018-07-20T23:55:31.605Z,10.03
2018-07-20T23:58:00.029Z,9.83
